createdAt,value
2019-02-23T00:02:12.572Z,10.85
2019-02-23T00:04:38.988Z,13.20
2019-02-23T00:07:05.400Z,9.08
2019-02-23T00:09:31.754Z,8.33
2019-02-23T00:11:58.413Z,9.45
2019-02-23T00:14:25.162Z,11.03
2019-02-23T00:16:52.198Z,9.23
2019-02-23T00:19:24.856Z,7.67
2019-02-23T00:21:47.424Z,8.23
2019-02-23T00:24:14.268Z,12.23
2019-02-23T00:26:41.005Z,10.72
2019-02-23T00:29:07.304Z,12.90
2019-02-23T00:31:34.084Z,7.83
2019-02-23T00:34:00.393Z,12.65
2019-02-23T00:36:26.707Z,11.88
2019-02-23T00:38:53.057Z,12.70
2019-02-23T00:41:19.919Z,8.10
2019-02-23T00:43:46.556Z,10.85
2019-02-23T00:46:12.899Z,10.70
2019-02-23T00:48:39.207Z,15.45
2019-02-23T00:51:06.069Z,9.93
2019-02-23T00:53:32.414Z,11.55
2019-02-23T00:55:59.036Z,16.85
2019-02-23T00:58:25.342Z,16.95
2019-02-23T01:00:52.309Z,12.50
2019-02-23T01:03:18.987Z,14.05
2019-02-23T01:05:45.599Z,18.07
2019-02-23T01:08:11.940Z,13.48
2019-02-23T01:10:38.661Z,14.05
2019-02-23T01:13:05.399Z,13.75
2019-02-23T01:15:31.777Z,15.83
2019-02-23T01:17:58.477Z,15.78
2019-02-23T01:20:25.132Z,15.45
2019-02-23T01:22:51.853Z,14.00
2019-02-23T01:25:18.488Z,16.55
2019-02-23T01:27:44.826Z,21.23
2019-02-23T01:30:11.362Z,15.65
2019-02-23T01:32:37.678Z,15.28
2019-02-23T01:35:05.054Z,12.78
2019-02-23T01:37:31.788Z,16.48
2019-02-23T01:39:58.109Z,16.80
2019-02-23T01:42:24.764Z,14.10
2019-02-23T01:44:51.508Z,14.18
2019-02-23T01:47:18.139Z,14.93
2019-02-23T01:49:44.783Z,9.43
2019-02-23T01:52:11.322Z,13.30
2019-02-23T01:54:37.951Z,25.05
2019-02-23T01:57:04.357Z,15.40
2019-02-23T01:59:30.708Z,18.07
2019-02-23T02:01:57.667Z,23.27
2019-02-23T02:04:24.011Z,14.95
2019-02-23T02:06:50.748Z,20.55
2019-02-23T02:09:17.060Z,15.90
2019-02-23T02:11:43.687Z,22.90
2019-02-23T02:14:10.351Z,25.27
2019-02-23T02:16:37.295Z,17.85
2019-02-23T02:19:03.805Z,19.70
2019-02-23T02:21:30.644Z,19.07
2019-02-23T02:23:57.343Z,16.97
2019-02-23T02:26:23.951Z,17.87
2019-02-23T02:28:50.308Z,16.20
2019-02-23T02:31:17.236Z,14.80
2019-02-23T02:34:07.391Z,11.20
2019-02-23T02:36:34.069Z,19.48
2019-02-23T02:39:00.805Z,19.02
2019-02-23T02:41:27.659Z,19.95
2019-02-23T02:43:54.299Z,25.88
2019-02-23T02:46:20.591Z,19.85
2019-02-23T02:48:47.256Z,16.55
2019-02-23T02:51:13.999Z,27.55
2019-02-23T02:53:40.644Z,25.80
2019-02-23T02:56:07.270Z,28.30
2019-02-23T02:58:33.779Z,24.75
2019-02-23T03:01:19.998Z,25.35
2019-02-23T03:03:46.752Z,21.62
2019-02-23T03:06:13.389Z,22.00
2019-02-23T03:08:40.023Z,14.45
2019-02-23T03:11:06.540Z,19.87
2019-02-23T03:13:32.953Z,19.92
2019-02-23T03:15:59.300Z,17.73
2019-02-23T03:18:25.969Z,19.12
2019-02-23T03:20:52.381Z,20.85
2019-02-23T03:23:19.247Z,20.15
2019-02-23T03:25:45.883Z,27.27
2019-02-23T03:28:12.618Z,19.23
2019-02-23T03:30:39.575Z,24.47
2019-02-23T03:33:06.289Z,21.10
2019-02-23T03:35:32.957Z,24.25
2019-02-23T03:37:59.295Z,19.48
2019-02-23T03:40:26.095Z,28.38
2019-02-23T03:42:52.392Z,20.45
2019-02-23T03:45:19.099Z,17.12
2019-02-23T03:47:45.738Z,20.17
2019-02-23T03:50:12.343Z,17.27
2019-02-23T03:52:39.016Z,14.70
2019-02-23T03:55:05.332Z,20.75
2019-02-23T03:57:31.989Z,17.30
2019-02-23T03:59:58.634Z,21.77
2019-02-23T04:02:25.364Z,22.30
2019-02-23T04:04:52.006Z,24.85
2019-02-23T04:07:18.740Z,27.32
2019-02-23T04:09:45.385Z,19.50
2019-02-23T04:12:12.123Z,19.48
2019-02-23T04:14:38.473Z,20.37
2019-02-23T04:17:05.093Z,14.00
2019-02-23T04:19:31.391Z,19.67
2019-02-23T04:21:58.267Z,18.37
2019-02-23T04:24:24.609Z,15.75
2019-02-23T04:26:51.348Z,18.00
2019-02-23T04:29:18.178Z,24.07
2019-02-23T04:31:44.696Z,21.48
2019-02-23T04:34:10.997Z,22.37
2019-02-23T04:36:37.790Z,18.25
2019-02-23T04:39:04.638Z,17.52
2019-02-23T04:41:31.481Z,22.65
2019-02-23T04:43:57.829Z,16.20
2019-02-23T04:46:24.129Z,13.58
2019-02-23T04:48:50.784Z,17.92
2019-02-23T04:51:17.629Z,16.20
2019-02-23T04:53:43.946Z,16.42
2019-02-23T04:56:10.601Z,20.40
2019-02-23T04:58:36.943Z,16.85
2019-02-23T05:01:03.774Z,16.15
2019-02-23T05:03:30.515Z,11.78
2019-02-23T05:05:56.891Z,22.55
2019-02-23T05:08:23.207Z,15.78
2019-02-23T05:10:49.581Z,14.18
2019-02-23T05:13:15.932Z,12.15
2019-02-23T05:15:42.583Z,14.90
2019-02-23T05:18:09.216Z,16.93
2019-02-23T05:20:35.879Z,13.28
2019-02-23T05:23:02.192Z,21.73
2019-02-23T05:25:28.513Z,19.05
2019-02-23T05:27:55.160Z,18.07
2019-02-23T05:30:21.585Z,14.93
2019-02-23T05:32:47.888Z,15.95
2019-02-23T05:35:14.222Z,12.95
2019-02-23T05:37:40.527Z,12.40
2019-02-23T05:40:09.977Z,13.68
2019-02-23T05:42:36.416Z,15.85
2019-02-23T05:45:04.927Z,16.37
2019-02-23T05:47:31.656Z,12.47
2019-02-23T05:49:58.393Z,9.60
2019-02-23T05:52:24.709Z,18.17
2019-02-23T05:54:51.024Z,16.02
2019-02-23T05:57:17.367Z,10.50
2019-02-23T05:59:44.123Z,14.07
2019-02-23T06:02:10.541Z,11.95
2019-02-23T06:04:37.410Z,14.28
2019-02-23T06:07:03.743Z,10.03
2019-02-23T06:09:30.108Z,16.07
2019-02-23T06:11:57.021Z,13.40
2019-02-23T06:14:23.333Z,16.15
2019-02-23T06:16:49.995Z,14.65
2019-02-23T06:19:16.724Z,13.50
2019-02-23T06:21:52.658Z,13.00
2019-02-23T06:24:11.946Z,11.55
2019-02-23T06:26:38.294Z,15.43
2019-02-23T06:29:04.602Z,10.48
2019-02-23T06:31:31.550Z,10.80
2019-02-23T06:33:58.002Z,9.35
2019-02-23T06:36:24.295Z,11.20
2019-02-23T06:38:50.608Z,8.73
2019-02-23T06:41:16.999Z,10.40
2019-02-23T06:43:43.308Z,17.85
2019-02-23T06:46:09.719Z,8.95
2019-02-23T06:48:36.187Z,7.60
2019-02-23T06:51:02.488Z,9.50
2019-02-23T06:53:29.160Z,6.37
2019-02-23T06:55:55.798Z,8.95
2019-02-23T06:58:22.429Z,9.53
2019-02-23T07:00:49.067Z,6.72
2019-02-23T07:03:15.414Z,10.30
2019-02-23T07:05:41.831Z,10.45
2019-02-23T07:08:08.484Z,8.53
2019-02-23T07:10:35.226Z,6.12
2019-02-23T07:13:01.960Z,5.80
2019-02-23T07:15:28.292Z,6.28
2019-02-23T07:17:54.604Z,5.55
2019-02-23T07:20:21.260Z,6.05
2019-02-23T07:22:47.561Z,4.62
2019-02-23T07:25:14.327Z,6.83
2019-02-23T07:27:40.964Z,6.12
2019-02-23T07:30:12.195Z,5.35
2019-02-23T07:32:38.862Z,5.83
2019-02-23T07:35:06.354Z,6.00
2019-02-23T07:37:32.956Z,7.67
2019-02-23T07:39:59.590Z,6.30
2019-02-23T07:42:26.233Z,8.28
2019-02-23T07:44:52.870Z,8.75
2019-02-23T07:47:19.216Z,10.58
2019-02-23T07:49:45.843Z,7.50
2019-02-23T07:52:12.684Z,9.35
2019-02-23T07:54:39.324Z,7.33
2019-02-23T07:57:05.627Z,6.05
2019-02-23T07:59:31.942Z,7.37
2019-02-23T08:01:58.629Z,12.47
2019-02-23T08:04:25.067Z,6.28
2019-02-23T08:06:51.422Z,5.80
2019-02-23T08:09:17.767Z,4.37
2019-02-23T08:11:44.459Z,12.95
2019-02-23T08:14:10.767Z,5.80
2019-02-23T08:16:37.104Z,6.58
2019-02-23T08:19:03.763Z,6.35
2019-02-23T08:21:30.422Z,8.20
2019-02-23T08:23:57.148Z,8.38
2019-02-23T08:26:23.784Z,6.72
2019-02-23T08:28:50.423Z,7.78
2019-02-23T08:31:16.776Z,12.55
2019-02-23T08:33:43.403Z,7.25
2019-02-23T08:36:10.030Z,8.80
2019-02-23T08:38:36.772Z,9.40
2019-02-23T08:41:03.619Z,9.05
2019-02-23T08:43:30.036Z,7.37
2019-02-23T08:45:56.509Z,7.20
2019-02-23T08:48:23.227Z,10.03
2019-02-23T08:50:49.825Z,9.53
2019-02-23T08:53:16.603Z,8.45
2019-02-23T08:55:43.248Z,8.48
2019-02-23T08:58:09.882Z,10.10
2019-02-23T09:00:36.237Z,13.18
2019-02-23T09:03:02.855Z,12.98
2019-02-23T09:05:30.219Z,8.50
2019-02-23T09:07:56.955Z,6.55
2019-02-23T09:10:23.596Z,5.55
2019-02-23T09:12:49.908Z,7.70
2019-02-23T09:15:16.571Z,7.72
2019-02-23T09:17:43.202Z,7.95
2019-02-23T09:20:11.077Z,9.98
2019-02-23T09:22:37.709Z,7.60
2019-02-23T09:25:06.808Z,7.15
2019-02-23T09:27:33.112Z,9.20
2019-02-23T09:29:59.781Z,8.98
2019-02-23T09:32:26.421Z,9.65
2019-02-23T09:34:53.083Z,10.05
2019-02-23T09:37:19.696Z,9.25
2019-02-23T09:39:46.000Z,8.55
2019-02-23T09:42:12.323Z,10.98
2019-02-23T09:44:38.995Z,9.50
2019-02-23T09:47:05.636Z,9.55
2019-02-23T09:49:32.275Z,7.20
2019-02-23T09:51:59.123Z,12.53
2019-02-23T09:54:25.426Z,7.03
2019-02-23T09:56:51.876Z,9.13
2019-02-23T09:59:18.533Z,15.25
2019-02-23T10:01:45.264Z,9.43
2019-02-23T10:04:12.005Z,13.15
2019-02-23T10:06:38.357Z,9.50
2019-02-23T10:09:05.083Z,16.23
2019-02-23T10:11:32.022Z,12.80
2019-02-23T10:13:58.984Z,12.93
2019-02-23T10:16:25.608Z,13.38
2019-02-23T10:18:52.250Z,8.95
2019-02-23T10:21:18.866Z,14.05
2019-02-23T10:23:45.178Z,8.13
2019-02-23T10:26:11.478Z,12.73
2019-02-23T10:28:38.185Z,9.65
2019-02-23T10:31:04.603Z,9.83
2019-02-23T10:33:31.261Z,8.90
2019-02-23T10:35:57.900Z,9.08
2019-02-23T10:38:24.579Z,14.83
2019-02-23T10:40:51.052Z,11.03
2019-02-23T10:43:17.413Z,11.48
2019-02-23T10:45:44.152Z,12.35
2019-02-23T10:48:10.790Z,11.63
2019-02-23T10:50:37.526Z,7.65
2019-02-23T10:53:04.267Z,8.38
2019-02-23T10:55:30.684Z,8.13
2019-02-23T10:57:57.049Z,14.63
2019-02-23T11:00:24.295Z,14.63
2019-02-23T11:02:50.822Z,12.05
2019-02-23T11:05:18.867Z,14.95
2019-02-23T11:07:45.640Z,12.28
2019-02-23T11:10:12.485Z,12.58
2019-02-23T11:12:38.836Z,11.18
2019-02-23T11:15:08.938Z,14.13
2019-02-23T11:17:35.566Z,13.45
2019-02-23T11:20:03.137Z,9.85
2019-02-23T11:22:29.772Z,9.25
2019-02-23T11:24:56.411Z,12.45
2019-02-23T11:27:23.152Z,12.63
2019-02-23T11:29:49.571Z,9.93
2019-02-23T11:32:16.116Z,8.78
2019-02-23T11:34:43.066Z,10.70
2019-02-23T11:37:09.711Z,8.48
2019-02-23T11:39:36.461Z,14.30
2019-02-23T11:42:02.910Z,12.47
2019-02-23T11:44:29.523Z,15.72
2019-02-23T11:47:03.046Z,10.38
2019-02-23T11:49:24.100Z,11.33
2019-02-23T11:51:50.415Z,7.90
2019-02-23T11:54:17.101Z,13.60
2019-02-23T11:56:43.891Z,11.12
2019-02-23T11:59:10.588Z,8.95
2019-02-23T12:01:37.230Z,11.08
2019-02-23T12:04:03.576Z,12.10
2019-02-23T12:06:30.306Z,10.72
2019-02-23T12:08:57.454Z,13.43
2019-02-23T12:11:25.627Z,18.87
2019-02-23T12:13:51.907Z,9.98
2019-02-23T12:16:18.587Z,10.65
2019-02-23T12:18:44.994Z,10.40
2019-02-23T12:21:11.267Z,11.18
2019-02-23T12:23:37.890Z,10.50
2019-02-23T12:26:04.240Z,11.20
2019-02-23T12:28:30.549Z,9.73
2019-02-23T12:30:56.970Z,10.78
2019-02-23T12:33:23.308Z,9.43
2019-02-23T12:35:49.613Z,16.25
2019-02-23T12:38:15.918Z,15.85
2019-02-23T12:40:42.693Z,15.10
2019-02-23T12:43:09.106Z,17.02
2019-02-23T12:45:35.421Z,13.38
2019-02-23T12:48:02.236Z,15.78
2019-02-23T12:50:28.542Z,13.78
2019-02-23T12:52:55.317Z,12.60
2019-02-23T12:55:22.260Z,14.75
2019-02-23T12:57:48.573Z,14.73
2019-02-23T13:00:16.392Z,14.93
2019-02-23T13:02:43.119Z,15.83
2019-02-23T13:05:09.438Z,13.03
2019-02-23T13:07:35.857Z,13.60
2019-02-23T13:10:02.708Z,15.90
2019-02-23T13:12:36.202Z,23.50
2019-02-23T13:15:18.422Z,14.47
2019-02-23T13:18:05.104Z,22.10
2019-02-23T13:21:07.098Z,17.85
2019-02-23T13:23:48.993Z,16.35
2019-02-23T13:26:35.806Z,15.38
2019-02-23T13:29:12.468Z,13.93
2019-02-23T13:31:51.998Z,19.95
2019-02-23T13:34:39.941Z,22.27
2019-02-23T13:37:16.133Z,17.90
2019-02-23T13:40:01.634Z,25.75
2019-02-23T13:43:07.251Z,17.70
2019-02-23T13:45:40.432Z,17.48
2019-02-23T13:48:22.745Z,20.70
2019-02-23T13:51:14.028Z,23.73
2019-02-23T13:53:53.496Z,18.35
2019-02-23T13:56:41.696Z,18.75
2019-02-23T13:59:36.272Z,16.32
2019-02-23T14:02:30.798Z,28.70
2019-02-23T14:05:34.220Z,20.32
2019-02-23T14:08:19.399Z,18.95
2019-02-23T14:11:06.090Z,17.40
2019-02-23T14:13:54.672Z,24.45
2019-02-23T14:16:43.428Z,27.17
2019-02-23T14:19:19.895Z,24.60
2019-02-23T14:21:56.039Z,21.23
2019-02-23T14:24:50.020Z,18.87
2019-02-23T14:27:18.414Z,21.85
2019-02-23T14:29:51.816Z,17.35
2019-02-23T14:35:16.532Z,19.77
2019-02-23T14:38:07.848Z,21.12
2019-02-23T14:40:57.459Z,26.12
2019-02-23T14:43:47.145Z,29.23
2019-02-23T14:46:20.968Z,23.18
2019-02-23T14:49:12.847Z,20.55
2019-02-23T14:51:48.932Z,30.15
2019-02-23T14:54:19.437Z,27.52
2019-02-23T14:57:10.978Z,27.80
2019-02-23T14:59:44.251Z,24.77
2019-02-23T15:04:54.329Z,27.82
2019-02-23T15:07:37.244Z,26.40
2019-02-23T15:10:31.158Z,29.27
2019-02-23T15:16:05.251Z,28.83
2019-02-23T15:18:39.235Z,26.20
2019-02-23T15:21:30.432Z,26.33
2019-02-23T15:24:12.355Z,33.20
2019-02-23T15:27:16.292Z,15.63
2019-02-23T15:29:52.875Z,25.70
2019-02-23T15:32:29.435Z,19.48
2019-02-23T15:35:08.398Z,23.10
2019-02-23T15:37:41.745Z,26.10
2019-02-23T15:43:02.915Z,17.25
2019-02-23T15:45:56.073Z,16.57
2019-02-23T15:48:43.450Z,18.30
2019-02-23T15:51:10.034Z,14.47
2019-02-23T15:53:36.309Z,16.97
2019-02-23T15:56:02.653Z,16.90
2019-02-23T15:58:28.954Z,19.73
2019-02-23T16:00:55.644Z,20.05
2019-02-23T16:03:22.204Z,19.35
2019-02-23T16:05:49.236Z,13.40
2019-02-23T16:08:15.542Z,13.78
2019-02-23T16:10:42.199Z,15.25
2019-02-23T16:13:08.578Z,19.37
2019-02-23T16:15:35.176Z,16.50
2019-02-23T16:18:01.915Z,15.10
2019-02-23T16:20:28.285Z,11.50
2019-02-23T16:22:54.744Z,10.45
2019-02-23T16:25:21.553Z,11.65
2019-02-23T16:27:47.957Z,13.22
2019-02-23T16:30:14.920Z,16.02
2019-02-23T16:32:41.595Z,9.58
2019-02-23T16:35:08.378Z,12.85
2019-02-23T16:37:35.026Z,15.50
2019-02-23T16:40:01.682Z,12.90
2019-02-23T16:42:27.984Z,10.48
2019-02-23T16:44:54.636Z,8.58
2019-02-23T16:47:22.096Z,14.25
2019-02-23T16:49:48.698Z,17.32
2019-02-23T16:52:15.245Z,15.93
2019-02-23T16:54:41.600Z,15.78
2019-02-23T16:57:08.232Z,13.00
2019-02-23T16:59:34.534Z,10.98
2019-02-23T17:02:01.417Z,16.12
2019-02-23T17:04:27.822Z,11.93
2019-02-23T17:06:54.594Z,13.00
2019-02-23T17:09:21.339Z,10.82
2019-02-23T17:11:48.072Z,14.20
2019-02-23T17:14:14.375Z,12.60
2019-02-23T17:16:41.045Z,9.23
2019-02-23T17:19:07.684Z,11.80
2019-02-23T17:21:34.196Z,12.70
2019-02-23T17:24:00.537Z,18.75
2019-02-23T17:26:27.192Z,14.50
2019-02-23T17:28:53.499Z,11.25
2019-02-23T17:31:20.358Z,9.13
2019-02-23T17:33:47.001Z,13.35
2019-02-23T17:36:13.331Z,7.45
2019-02-23T17:38:39.970Z,10.70
2019-02-23T17:41:06.476Z,9.00
2019-02-23T17:43:33.152Z,13.98
2019-02-23T17:45:59.496Z,12.90
2019-02-23T17:48:26.115Z,11.88
2019-02-23T17:50:53.169Z,8.85
2019-02-23T17:53:19.527Z,11.85
2019-02-23T17:55:46.127Z,9.78
2019-02-23T17:58:12.775Z,9.78
2019-02-23T18:00:39.644Z,17.87
2019-02-23T18:03:06.259Z,9.65
2019-02-23T18:05:32.891Z,9.50
2019-02-23T18:07:59.639Z,9.60
2019-02-23T18:10:26.687Z,6.50
2019-02-23T18:12:53.328Z,10.03
2019-02-23T18:15:19.833Z,7.70
2019-02-23T18:17:46.610Z,14.63
2019-02-23T18:20:13.337Z,11.03
2019-02-23T18:22:40.195Z,8.03
2019-02-23T18:25:07.307Z,8.18
2019-02-23T18:27:33.624Z,8.20
2019-02-23T18:30:09.437Z,8.18
2019-02-23T18:32:28.079Z,7.97
2019-02-23T18:34:54.819Z,8.48
2019-02-23T18:37:21.166Z,8.48
2019-02-23T18:39:49.836Z,8.25
2019-02-23T18:42:16.678Z,8.53
2019-02-23T18:44:43.315Z,7.17
2019-02-23T18:47:09.963Z,10.18
2019-02-23T18:49:36.599Z,6.78
2019-02-23T18:52:03.152Z,7.75
2019-02-23T18:54:29.775Z,7.17
2019-02-23T18:56:56.089Z,6.00
2019-02-23T18:59:22.426Z,12.63
2019-02-23T19:01:50.195Z,8.15
2019-02-23T19:04:16.840Z,5.30
2019-02-23T19:06:43.579Z,5.62
2019-02-23T19:09:10.316Z,7.05
2019-02-23T19:11:37.376Z,5.62
2019-02-23T19:14:05.935Z,6.03
2019-02-23T19:16:32.492Z,8.55
2019-02-23T19:18:58.790Z,7.97
2019-02-23T19:21:25.571Z,6.97
2019-02-23T19:23:51.875Z,6.08
2019-02-23T19:26:18.192Z,7.60
2019-02-23T19:28:44.870Z,7.03
2019-02-23T19:31:11.912Z,4.45
2019-02-23T19:33:38.552Z,7.58
2019-02-23T19:36:05.192Z,13.15
2019-02-23T19:38:33.496Z,7.22
2019-02-23T19:40:59.994Z,7.33
2019-02-23T19:43:26.339Z,7.72
2019-02-23T19:45:53.523Z,8.45
2019-02-23T19:48:19.799Z,7.33
2019-02-23T19:50:50.554Z,6.75
2019-02-23T19:53:16.868Z,7.10
2019-02-23T19:55:43.180Z,4.87
2019-02-23T19:58:09.524Z,5.65
2019-02-23T20:00:36.294Z,4.83
2019-02-23T20:03:02.930Z,6.65
2019-02-23T20:05:29.281Z,4.25
2019-02-23T20:07:55.664Z,6.30
2019-02-23T20:10:22.158Z,3.95
2019-02-23T20:12:48.547Z,5.78
2019-02-23T20:15:15.204Z,9.15
2019-02-23T20:17:42.086Z,4.83
2019-02-23T20:20:08.706Z,3.67
2019-02-23T20:22:35.012Z,6.35
2019-02-23T20:25:01.765Z,2.80
2019-02-23T20:27:28.405Z,3.65
2019-02-23T20:29:54.706Z,4.37
2019-02-23T20:32:21.674Z,4.00
2019-02-23T20:34:48.122Z,4.40
2019-02-23T20:37:14.752Z,5.92
2019-02-23T20:39:41.058Z,2.83
2019-02-23T20:42:08.123Z,4.33
2019-02-23T20:44:34.439Z,3.37
2019-02-23T20:47:01.305Z,2.62
2019-02-23T20:49:27.940Z,4.85
2019-02-23T20:51:54.456Z,4.72
2019-02-23T20:54:20.769Z,6.87
2019-02-23T20:56:47.452Z,6.97
2019-02-23T20:59:13.867Z,7.58
2019-02-23T21:01:40.293Z,4.42
2019-02-23T21:04:07.538Z,7.92
2019-02-23T21:06:33.849Z,9.85
2019-02-23T21:09:00.252Z,6.20
2019-02-23T21:11:26.881Z,5.35
2019-02-23T21:13:53.190Z,4.75
2019-02-23T21:16:21.059Z,3.37
2019-02-23T21:18:47.423Z,5.10
2019-02-23T21:21:14.156Z,5.53
2019-02-23T21:23:41.367Z,6.17
2019-02-23T21:26:07.710Z,4.33
2019-02-23T21:28:34.014Z,3.72
2019-02-23T21:31:00.583Z,5.08
2019-02-23T21:33:27.514Z,2.90
2019-02-23T21:35:53.753Z,5.62
2019-02-23T21:38:20.055Z,7.22
2019-02-23T21:40:46.746Z,4.22
2019-02-23T21:43:13.052Z,4.62
2019-02-23T21:45:39.731Z,5.10
2019-02-23T21:48:06.461Z,6.80
2019-02-23T21:50:32.876Z,3.12
2019-02-23T21:52:59.533Z,3.90
2019-02-23T21:55:25.886Z,3.72
2019-02-23T21:57:52.513Z,4.33
2019-02-23T22:00:19.025Z,5.50
2019-02-23T22:02:45.689Z,6.75
2019-02-23T22:05:12.755Z,2.70
2019-02-23T22:07:39.676Z,4.72
2019-02-23T22:10:07.518Z,4.10
2019-02-23T22:12:34.284Z,4.08
2019-02-23T22:15:01.704Z,5.62
2019-02-23T22:17:28.584Z,6.20
2019-02-23T22:19:54.889Z,6.10
2019-02-23T22:22:21.217Z,7.60
2019-02-23T22:24:47.572Z,4.92
2019-02-23T22:27:14.093Z,7.40
2019-02-23T22:29:40.760Z,7.15
2019-02-23T22:32:07.704Z,6.92
2019-02-23T22:34:34.342Z,7.12
2019-02-23T22:37:01.179Z,11.20
2019-02-23T22:39:27.824Z,6.58
2019-02-23T22:41:54.777Z,7.60
2019-02-23T22:44:21.400Z,7.87
2019-02-23T22:46:47.854Z,5.12
2019-02-23T22:49:14.579Z,3.90
2019-02-23T22:51:41.196Z,4.37
2019-02-23T22:54:07.861Z,7.97
2019-02-23T22:56:34.169Z,3.75
2019-02-23T22:59:00.472Z,2.95
2019-02-23T23:01:27.089Z,3.83
2019-02-23T23:03:53.690Z,4.10
2019-02-23T23:06:20.547Z,3.83
2019-02-23T23:08:47.297Z,3.33
2019-02-23T23:11:13.865Z,5.30
2019-02-23T23:13:40.568Z,7.33
2019-02-23T23:16:07.038Z,9.35
2019-02-23T23:18:33.378Z,5.10
2019-02-23T23:21:00.270Z,4.92
2019-02-23T23:23:26.824Z,9.43
2019-02-23T23:25:53.448Z,13.35
2019-02-23T23:28:20.094Z,11.48
2019-02-23T23:30:47.339Z,8.18
2019-02-23T23:33:13.982Z,7.95
2019-02-23T23:35:40.282Z,7.08
2019-02-23T23:38:07.055Z,7.03
2019-02-23T23:40:33.791Z,7.10
2019-02-23T23:43:00.201Z,9.00
2019-02-23T23:45:26.561Z,5.35
2019-02-23T23:47:53.201Z,9.08
2019-02-23T23:50:19.713Z,5.97
2019-02-23T23:52:46.064Z,5.55
2019-02-23T23:55:12.704Z,4.42
2019-02-23T23:57:39.447Z,6.70
